sensor_id;sensor_type;location;lat;lon;timestamp;pressure;altitude;pressure_sealevel;temperature;humidity
50057;BME280;36875;49.468;11.200;2023-09-19T00:01:33;97471.84;;;21.72;59.44
50057;BME280;36875;49.468;11.200;2023-09-19T00:04:00;97471.84;;;21.72;59.44
50057;BME280;36875;49.468;11.200;2023-09-19T00:06:28;97472.22;;;21.71;59.46
50057;BME280;36875;49.468;11.200;2023-09-19T00:08:56;97482.03;;;21.72;59.84
50057;BME280;36875;49.468;11.200;2023-09-19T00:11:24;97474.97;;;21.71;59.52
50057;BME280;36875;49.468;11.200;2023-09-19T00:13:51;97476.88;;;21.70;59.40
50057;BME280;36875;49.468;11.200;2023-09-19T00:16:17;97482.34;;;21.70;59.37
50057;BME280;36875;49.468;11.200;2023-09-19T00:18:44;97468.66;;;21.70;59.62
50057;BME280;36875;49.468;11.200;2023-09-19T00:21:11;97478.81;;;21.70;59.44
50057;BME280;36875;49.468;11.200;2023-09-19T00:23:36;97473.34;;;21.70;59.38
50057;BME280;36875;49.468;11.200;2023-09-19T00:26:03;97479.97;;;21.69;59.46
50057;BME280;36875;49.468;11.200;2023-09-19T00:28:29;97482.72;;;21.69;59.10
50057;BME280;36875;49.468;11.200;2023-09-19T00:30:55;97476.72;;;21.67;59.65
50057;BME280;36875;49.468;11.200;2023-09-19T00:33:21;97480.75;;;21.69;59.38
50057;BME280;36875;49.468;11.200;2023-09-19T00:35:47;97484.63;;;21.68;59.42
50057;BME280;36875;49.468;11.200;2023-09-19T00:38:15;97493.66;;;21.69;59.34
50057;BME280;36875;49.468;11.200;2023-09-19T00:40:46;97492.03;;;21.68;59.35
50057;BME280;36875;49.468;11.200;2023-09-19T00:43:12;97488.19;;;21.69;59.52
50057;BME280;36875;49.468;11.200;2023-09-19T00:45:38;97490.94;;;21.69;59.46
50057;BME280;36875;49.468;11.200;2023-09-19T00:48:04;97501.06;;;21.68;59.35
50057;BME280;36875;49.468;11.200;2023-09-19T00:50:35;97496.72;;;21.67;59.20
50057;BME280;36875;49.468;11.200;2023-09-19T00:53:02;97504.94;;;21.67;59.09
50057;BME280;36875;49.468;11.200;2023-09-19T00:55:34;97509.59;;;21.67;59.40
50057;BME280;36875;49.468;11.200;2023-09-19T00:58:03;97511.53;;;21.66;59.28
50057;BME280;36875;49.468;11.200;2023-09-19T01:00:28;97514.28;;;21.66;59.16
50057;BME280;36875;49.468;11.200;2023-09-19T01:02:54;97517.03;;;21.66;59.46
50057;BME280;36875;49.468;11.200;2023-09-19T01:05:21;97516.22;;;21.66;59.06
50057;BME280;36875;49.468;11.200;2023-09-19T01:07:46;97518.16;;;21.65;59.43
50057;BME280;36875;49.468;11.200;2023-09-19T01:10:16;97513.50;;;21.66;59.27
50057;BME280;36875;49.468;11.200;2023-09-19T01:12:53;97515.44;;;21.65;59.18
50057;BME280;36875;49.468;11.200;2023-09-19T01:15:28;97513.81;;;21.64;59.48
50057;BME280;36875;49.468;11.200;2023-09-19T01:18:01;97513.81;;;21.64;59.37
50057;BME280;36875;49.468;11.200;2023-09-19T01:20:36;97526.72;;;21.64;59.26
50057;BME280;36875;49.468;11.200;2023-09-19T01:23:11;97523.16;;;21.63;59.27
50057;BME280;36875;49.468;11.200;2023-09-19T01:25:56;97528.63;;;21.63;59.33
50057;BME280;36875;49.468;11.200;2023-09-19T01:28:43;97525.09;;;21.63;59.43
50057;BME280;36875;49.468;11.200;2023-09-19T01:31:14;97525.09;;;21.63;59.25
50057;BME280;36875;49.468;11.200;2023-09-19T01:33:57;97525.09;;;21.63;59.35
50057;BME280;36875;49.468;11.200;2023-09-19T01:36:25;97533.31;;;21.63;59.37
50057;BME280;36875;49.468;11.200;2023-09-19T01:38:51;97534.09;;;21.63;59.39
50057;BME280;36875;49.468;11.200;2023-09-19T01:41:21;97529.78;;;21.62;59.35
50057;BME280;36875;49.468;11.200;2023-09-19T01:43:50;97522.69;;;21.61;59.22
50057;BME280;36875;49.468;11.200;2023-09-19T01:46:21;97528.16;;;21.61;59.30
50057;BME280;36875;49.468;11.200;2023-09-19T01:48:56;97521.09;;;21.60;59.28
50057;BME280;36875;49.468;11.200;2023-09-19T01:51:40;97519.94;;;21.61;59.33
50057;BME280;36875;49.468;11.200;2023-09-19T01:54:11;97523.84;;;21.60;59.40
50057;BME280;36875;49.468;11.200;2023-09-19T01:56:42;97524.63;;;21.61;59.24
50057;BME280;36875;49.468;11.200;2023-09-19T01:59:11;97530.09;;;21.61;59.39
50057;BME280;36875;49.468;11.200;2023-09-19T02:01:41;97521.09;;;21.60;59.16
50057;BME280;36875;49.468;11.200;2023-09-19T02:04:10;97532.84;;;21.61;59.18
50057;BME280;36875;49.468;11.200;2023-09-19T02:06:35;97526.56;;;21.60;59.25
50057;BME280;36875;49.468;11.200;2023-09-19T02:09:04;97530.44;;;21.59;59.35
50057;BME280;36875;49.468;11.200;2023-09-19T02:11:30;97535.09;;;21.59;59.38
50057;BME280;36875;49.468;11.200;2023-09-19T02:13:55;97528.84;;;21.58;59.32
50057;BME280;36875;49.468;11.200;2023-09-19T02:16:21;97541.38;;;21.59;59.39
50057;BME280;36875;49.468;11.200;2023-09-19T02:18:49;97540.59;;;21.59;59.36
50057;BME280;36875;49.468;11.200;2023-09-19T02:21:15;97544.13;;;21.59;59.16
50057;BME280;36875;49.468;11.200;2023-09-19T02:23:40;97531.56;;;21.58;59.32
50057;BME280;36875;49.468;11.200;2023-09-19T02:26:06;97527.22;;;21.57;59.14
50057;BME280;36875;49.468;11.200;2023-09-19T02:28:31;97540.91;;;21.57;59.06
50057;BME280;36875;49.468;11.200;2023-09-19T02:30:57;97540.91;;;21.57;59.31
50057;BME280;36875;49.468;11.200;2023-09-19T02:33:23;97544.81;;;21.56;59.17
50057;BME280;36875;49.468;11.200;2023-09-19T02:35:53;97542.84;;;21.56;59.23
50057;BME280;36875;49.468;11.200;2023-09-19T02:38:19;97538.16;;;21.57;59.05
50057;BME280;36875;49.468;11.200;2023-09-19T02:40:50;97551.06;;;21.56;59.19
50057;BME280;36875;49.468;11.200;2023-09-19T02:43:15;97556.53;;;21.56;59.09
50057;BME280;36875;49.468;11.200;2023-09-19T02:45:42;97565.88;;;21.55;59.27
50057;BME280;36875;49.468;11.200;2023-09-19T02:48:08;97571.03;;;21.57;59.23
50057;BME280;36875;49.468;11.200;2023-09-19T02:50:33;97567.81;;;21.55;58.92
50057;BME280;36875;49.468;11.200;2023-09-19T02:53:04;97576.84;;;21.55;59.09
50057;BME280;36875;49.468;11.200;2023-09-19T02:55:30;97562.66;;;21.53;59.08
50057;BME280;36875;49.468;11.200;2023-09-19T02:57:55;97573.28;;;21.55;59.17
50057;BME280;36875;49.468;11.200;2023-09-19T03:00:22;97569.75;;;21.54;59.16
50057;BME280;36875;49.468;11.200;2023-09-19T03:02:48;97573.28;;;21.55;59.23
50057;BME280;36875;49.468;11.200;2023-09-19T03:05:14;97569.75;;;21.54;59.07
50057;BME280;36875;49.468;11.200;2023-09-19T03:07:39;97576.03;;;21.55;59.10
50057;BME280;36875;49.468;11.200;2023-09-19T03:10:07;97585.38;;;21.54;59.20
50057;BME280;36875;49.468;11.200;2023-09-19T03:12:33;97579.09;;;21.53;59.36
50057;BME280;36875;49.468;11.200;2023-09-19T03:14:59;97577.50;;;21.52;59.24
50057;BME280;36875;49.468;11.200;2023-09-19T03:17:25;97584.56;;;21.53;59.06
50057;BME280;36875;49.468;11.200;2023-09-19T03:19:50;97581.03;;;21.53;59.41
50057;BME280;36875;49.468;11.200;2023-09-19T03:22:16;97582.97;;;21.52;59.07
50057;BME280;36875;49.468;11.200;2023-09-19T03:24:42;97589.25;;;21.53;58.98
50057;BME280;36875;49.468;11.200;2023-09-19T03:27:10;97583.78;;;21.53;58.96
50057;BME280;36875;49.468;11.200;2023-09-19T03:29:36;97588.47;;;21.52;58.94
50057;BME280;36875;49.468;11.200;2023-09-19T03:32:02;97578.63;;;21.51;59.19
50057;BME280;36875;49.468;11.200;2023-09-19T03:34:28;97580.56;;;21.51;59.19
50057;BME280;36875;49.468;11.200;2023-09-19T03:36:54;97575.09;;;21.51;59.15
50057;BME280;36875;49.468;11.200;2023-09-19T03:39:20;97580.56;;;21.51;59.02
50057;BME280;36875;49.468;11.200;2023-09-19T03:41:46;97576.69;;;21.52;59.06
50057;BME280;36875;49.468;11.200;2023-09-19T03:44:13;97577.84;;;21.51;59.07
50057;BME280;36875;49.468;11.200;2023-09-19T03:46:38;97579.75;;;21.50;59.09
50057;BME280;36875;49.468;11.200;2023-09-19T03:49:04;97584.44;;;21.50;59.16
50057;BME280;36875;49.468;11.200;2023-09-19T03:51:29;97585.22;;;21.50;59.04
50057;BME280;36875;49.468;11.200;2023-09-19T03:53:55;97591.53;;;21.51;59.20
50057;BME280;36875;49.468;11.200;2023-09-19T03:56:21;97595.38;;;21.50;59.04
50057;BME280;36875;49.468;11.200;2023-09-19T03:58:46;97593.44;;;21.50;58.96
50057;BME280;36875;49.468;11.200;2023-09-19T04:01:13;97590.69;;;21.50;59.11
50057;BME280;36875;49.468;11.200;2023-09-19T04:03:39;97584.44;;;21.50;58.97
50057;BME280;36875;49.468;11.200;2023-09-19T04:06:16;97582.84;;;21.49;58.87
50057;BME280;36875;49.468;11.200;2023-09-19T04:08:42;97589.09;;;21.49;59.02
50057;BME280;36875;49.468;11.200;2023-09-19T04:11:08;97584.75;;;21.48;58.89
50057;BME280;36875;49.468;11.200;2023-09-19T04:13:33;97592.97;;;21.48;58.98
50057;BME280;36875;49.468;11.200;2023-09-19T04:15:59;97603.91;;;21.48;58.97
50057;BME280;36875;49.468;11.200;2023-09-19T04:18:26;97602.00;;;21.49;59.03
50057;BME280;36875;49.468;11.200;2023-09-19T04:20:52;97615.69;;;21.49;58.84
50057;BME280;36875;49.468;11.200;2023-09-19T04:23:17;97614.06;;;21.48;59.17
50057;BME280;36875;49.468;11.200;2023-09-19T04:25:45;97614.88;;;21.48;59.20
50057;BME280;36875;49.468;11.200;2023-09-19T04:28:10;97616.81;;;21.48;59.06
50057;BME280;36875;49.468;11.200;2023-09-19T04:30:39;97627.75;;;21.48;59.00
50057;BME280;36875;49.468;11.200;2023-09-19T04:33:07;97626.16;;;21.47;58.91
50057;BME280;36875;49.468;11.200;2023-09-19T04:35:34;97622.28;;;21.48;59.08
50057;BME280;36875;49.468;11.200;2023-09-19T04:38:00;97626.16;;;21.47;58.88
50057;BME280;36875;49.468;11.200;2023-09-19T04:40:26;97627.28;;;21.46;58.69
50057;BME280;36875;49.468;11.200;2023-09-19T04:42:53;97636.28;;;21.46;58.92
50057;BME280;36875;49.468;11.200;2023-09-19T04:45:21;97631.97;;;21.45;58.95
50057;BME280;36875;49.468;11.200;2023-09-19T04:47:47;97634.38;;;21.47;59.02
50057;BME280;36875;49.468;11.200;2023-09-19T04:50:12;97632.75;;;21.46;58.95
50057;BME280;36875;49.468;11.200;2023-09-19T04:52:41;97638.25;;;21.46;59.04
50057;BME280;36875;49.468;11.200;2023-09-19T04:55:10;97647.56;;;21.45;58.94
50057;BME280;36875;49.468;11.200;2023-09-19T04:57:36;97644.81;;;21.45;59.19
50057;BME280;36875;49.468;11.200;2023-09-19T05:00:02;97643.72;;;21.46;59.25
50057;BME280;36875;49.468;11.200;2023-09-19T05:02:32;97645.94;;;21.44;59.15
50057;BME280;36875;49.468;11.200;2023-09-19T05:04:57;97648.41;;;21.45;58.99
50057;BME280;36875;49.468;11.200;2023-09-19T05:07:25;97646.75;;;21.44;58.92
50057;BME280;36875;49.468;11.200;2023-09-19T05:09:53;97650.31;;;21.45;58.84
50057;BME280;36875;49.468;11.200;2023-09-19T05:12:18;97651.41;;;21.44;58.78
50057;BME280;36875;49.468;11.200;2023-09-19T05:14:45;97645.94;;;21.44;58.88
50057;BME280;36875;49.468;11.200;2023-09-19T05:17:10;97651.75;;;21.42;58.90
50057;BME280;36875;49.468;11.200;2023-09-19T05:19:35;97656.91;;;21.44;58.69
50057;BME280;36875;49.468;11.200;2023-09-19T05:22:02;97661.75;;;21.47;58.74
50057;BME280;36875;49.468;11.200;2023-09-19T05:24:29;97656.75;;;21.49;58.85
50057;BME280;36875;49.468;11.200;2023-09-19T05:26:56;97661.75;;;21.47;59.05
50057;BME280;36875;49.468;11.200;2023-09-19T05:29:22;97655.47;;;21.46;58.94
50057;BME280;36875;49.468;11.200;2023-09-19T05:31:48;97653.03;;;21.45;58.81
50057;BME280;36875;49.468;11.200;2023-09-19T05:34:15;97656.59;;;21.45;58.87
50057;BME280;36875;49.468;11.200;2023-09-19T05:36:40;97660.13;;;21.46;58.85
50057;BME280;36875;49.468;11.200;2023-09-19T05:39:06;97668.66;;;21.44;58.77
50057;BME280;36875;49.468;11.200;2023-09-19T05:41:34;97665.63;;;21.46;58.81
50057;BME280;36875;49.468;11.200;2023-09-19T05:44:03;97668.34;;;21.46;58.94
50057;BME280;36875;49.468;11.200;2023-09-19T05:46:29;97668.03;;;21.47;58.71
50057;BME280;36875;49.468;11.200;2023-09-19T05:48:55;97672.72;;;21.47;58.79
50057;BME280;36875;49.468;11.200;2023-09-19T05:51:22;97674.63;;;21.46;59.10
50057;BME280;36875;49.468;11.200;2023-09-19T05:53:48;97687.50;;;21.46;58.64
50057;BME280;36875;49.468;11.200;2023-09-19T05:56:13;97675.78;;;21.45;58.88
50057;BME280;36875;49.468;11.200;2023-09-19T05:58:40;97680.41;;;21.45;58.62
50057;BME280;36875;49.468;11.200;2023-09-19T06:01:09;97691.38;;;21.45;58.87
50057;BME280;36875;49.468;11.200;2023-09-19T06:03:35;97690.53;;;21.44;58.95
50057;BME280;36875;49.468;11.200;2023-09-19T06:06:01;97709.22;;;21.42;58.89
50057;BME280;36875;49.468;11.200;2023-09-19T06:08:26;97701.81;;;21.43;58.76
50057;BME280;36875;49.468;11.200;2023-09-19T06:10:52;97702.97;;;21.42;58.90
50057;BME280;36875;49.468;11.200;2023-09-19T06:13:17;97711.97;;;21.42;58.98
50057;BME280;36875;49.468;11.200;2023-09-19T06:15:43;97713.59;;;21.43;58.71
50057;BME280;36875;49.468;11.200;2023-09-19T06:18:11;97705.22;;;21.40;58.85
50057;BME280;36875;49.468;11.200;2023-09-19T06:20:42;97714.72;;;21.42;58.85
50057;BME280;36875;49.468;11.200;2023-09-19T06:23:09;97717.91;;;21.44;59.07
50057;BME280;36875;49.468;11.200;2023-09-19T06:25:35;97720.19;;;21.42;58.92
50057;BME280;36875;49.468;11.200;2023-09-19T06:28:01;97716.31;;;21.43;58.93
50057;BME280;36875;49.468;11.200;2023-09-19T06:30:30;97716.97;;;21.40;58.68
50057;BME280;36875;49.468;11.200;2023-09-19T06:32:56;97725.19;;;21.40;58.98
50057;BME280;36875;49.468;11.200;2023-09-19T06:35:23;97721.28;;;21.41;58.61
50057;BME280;36875;49.468;11.200;2023-09-19T06:37:51;97722.13;;;21.42;58.90
50057;BME280;36875;49.468;11.200;2023-09-19T06:40:18;97733.56;;;21.44;58.92
50057;BME280;36875;49.468;11.200;2023-09-19T06:42:45;97728.06;;;21.44;58.83
50057;BME280;36875;49.468;11.200;2023-09-19T06:45:12;97730.81;;;21.44;58.75
50057;BME280;36875;49.468;11.200;2023-09-19T06:47:38;97728.41;;;21.42;59.10
50057;BME280;36875;49.468;11.200;2023-09-19T06:50:04;97728.25;;;21.47;58.72
50057;BME280;36875;49.468;11.200;2023-09-19T06:52:32;97727.75;;;21.54;58.68
50057;BME280;36875;49.468;11.200;2023-09-19T06:55:00;97734.84;;;21.55;58.66
50057;BME280;36875;49.468;11.200;2023-09-19T06:57:28;97735.78;;;21.59;58.70
50057;BME280;36875;49.468;11.200;2023-09-19T06:59:53;97738.38;;;21.64;58.36
50057;BME280;36875;49.468;11.200;2023-09-19T07:02:19;97739.97;;;21.65;58.33
50057;BME280;36875;49.468;11.200;2023-09-19T07:04:47;97736.91;;;21.67;58.48
50057;BME280;36875;49.468;11.200;2023-09-19T07:07:12;97742.19;;;21.72;58.44
50057;BME280;36875;49.468;11.200;2023-09-19T07:09:40;97747.03;;;21.75;58.29
50057;BME280;36875;49.468;11.200;2023-09-19T07:12:07;97750.72;;;21.79;58.07
50057;BME280;36875;49.468;11.200;2023-09-19T07:14:33;97756.34;;;21.83;58.09
50057;BME280;36875;49.468;11.200;2023-09-19T07:16:58;97756.19;;;21.79;58.01
50057;BME280;36875;49.468;11.200;2023-09-19T07:19:25;97761.84;;;21.83;58.14
50057;BME280;36875;49.468;11.200;2023-09-19T07:21:53;97757.81;;;21.80;58.24
50057;BME280;36875;49.468;11.200;2023-09-19T07:24:19;97765.22;;;21.80;58.04
50057;BME280;36875;49.468;11.200;2023-09-19T07:26:46;97766.50;;;21.82;58.13
50057;BME280;36875;49.468;11.200;2023-09-19T07:29:12;97759.41;;;21.81;58.31
50057;BME280;36875;49.468;11.200;2023-09-19T07:31:37;97771.19;;;21.82;58.47
50057;BME280;36875;49.468;11.200;2023-09-19T07:34:03;97766.84;;;21.81;58.29
50057;BME280;36875;49.468;11.200;2023-09-19T07:36:30;97763.47;;;21.84;58.19
50057;BME280;36875;49.468;11.200;2023-09-19T07:38:55;97768.09;;;21.83;58.33
50057;BME280;36875;49.468;11.200;2023-09-19T07:41:23;97777.94;;;21.84;58.24
50057;BME280;36875;49.468;11.200;2023-09-19T07:43:50;97774.06;;;21.85;58.04
50057;BME280;36875;49.468;11.200;2023-09-19T07:46:15;97772.16;;;21.86;58.35
50057;BME280;36875;49.468;11.200;2023-09-19T07:48:41;97770.84;;;21.83;58.12
50057;BME280;36875;49.468;11.200;2023-09-19T07:51:13;97778.59;;;21.81;58.10
50057;BME280;36875;49.468;11.200;2023-09-19T07:53:39;97787.97;;;21.80;58.09
50057;BME280;36875;49.468;11.200;2023-09-19T07:56:05;97786.81;;;21.81;58.08
50057;BME280;36875;49.468;11.200;2023-09-19T07:58:31;97788.28;;;21.79;58.11
50057;BME280;36875;49.468;11.200;2023-09-19T08:01:03;97785.06;;;21.77;57.98
50057;BME280;36875;49.468;11.200;2023-09-19T08:03:29;97792.81;;;21.74;58.43
50057;BME280;36875;49.468;11.200;2023-09-19T08:05:56;97795.88;;;21.73;58.14
50057;BME280;36875;49.468;11.200;2023-09-19T08:08:23;97799.41;;;21.73;58.43
50057;BME280;36875;49.468;11.200;2023-09-19T08:10:52;97804.22;;;21.77;58.18
50057;BME280;36875;49.468;11.200;2023-09-19T08:13:18;97802.78;;;21.79;58.02
50057;BME280;36875;49.468;11.200;2023-09-19T08:15:44;97805.50;;;21.79;58.17
50057;BME280;36875;49.468;11.200;2023-09-19T08:18:11;97798.09;;;21.80;58.37
50057;BME280;36875;49.468;11.200;2023-09-19T08:20:37;97803.56;;;21.80;58.15
50057;BME280;36875;49.468;11.200;2023-09-19T08:23:03;97807.13;;;21.80;58.21
50057;BME280;36875;49.468;11.200;2023-09-19T08:25:29;97810.19;;;21.79;58.20
50057;BME280;36875;49.468;11.200;2023-09-19T08:27:55;97807.44;;;21.79;57.99
50057;BME280;36875;49.468;11.200;2023-09-19T08:30:23;97812.94;;;21.79;58.35
50057;BME280;36875;49.468;11.200;2023-09-19T08:32:49;97815.66;;;21.79;58.04
50057;BME280;36875;49.468;11.200;2023-09-19T08:35:16;97819.19;;;21.79;58.01
50057;BME280;36875;49.468;11.200;2023-09-19T08:37:42;97815.66;;;21.79;58.27
50057;BME280;36875;49.468;11.200;2023-09-19T08:40:08;97818.88;;;21.81;58.26
50057;BME280;36875;49.468;11.200;2023-09-19T08:42:48;97825.47;;;21.80;58.07
50057;BME280;36875;49.468;11.200;2023-09-19T08:45:15;97826.63;;;21.79;57.85
50057;BME280;36875;49.468;11.200;2023-09-19T08:47:45;97826.63;;;21.79;57.98
50057;BME280;36875;49.468;11.200;2023-09-19T08:50:17;97834.53;;;21.80;58.10
50057;BME280;36875;49.468;11.200;2023-09-19T08:52:46;97834.69;;;21.84;57.89
50057;BME280;36875;49.468;11.200;2023-09-19T08:55:13;97834.69;;;21.84;57.71
50057;BME280;36875;49.468;11.200;2023-09-19T08:57:46;97840.94;;;21.84;57.97
50057;BME280;36875;49.468;11.200;2023-09-19T09:00:15;97829.19;;;21.84;57.70
50057;BME280;36875;49.468;11.200;2023-09-19T09:02:43;97835.78;;;21.83;57.82
50057;BME280;36875;49.468;11.200;2023-09-19T09:05:10;97826.78;;;21.82;57.83
50057;BME280;36875;49.468;11.200;2023-09-19T09:07:37;97832.41;;;21.86;58.04
50057;BME280;36875;49.468;11.200;2023-09-19T09:10:04;97832.41;;;21.86;57.76
50057;BME280;36875;49.468;11.200;2023-09-19T09:12:30;97836.75;;;21.87;57.67
50057;BME280;36875;49.468;11.200;2023-09-19T09:14:56;97837.22;;;21.89;57.39
50057;BME280;36875;49.468;11.200;2023-09-19T09:17:22;97841.59;;;21.90;57.47
50057;BME280;36875;49.468;11.200;2023-09-19T09:19:48;97841.59;;;21.90;57.94
50057;BME280;36875;49.468;11.200;2023-09-19T09:22:14;97834.47;;;21.89;57.70
50057;BME280;36875;49.468;11.200;2023-09-19T09:24:52;97840.31;;;21.87;57.67
50057;BME280;36875;49.468;11.200;2023-09-19T09:27:19;97844.00;;;21.83;57.77
50057;BME280;36875;49.468;11.200;2023-09-19T09:29:46;97853.38;;;21.82;57.89
50057;BME280;36875;49.468;11.200;2023-09-19T09:32:19;97849.00;;;21.81;57.77
50057;BME280;36875;49.468;11.200;2023-09-19T09:34:46;97861.09;;;21.80;57.64
50057;BME280;36875;49.468;11.200;2023-09-19T09:37:13;97862.22;;;21.79;57.71
50057;BME280;36875;49.468;11.200;2023-09-19T09:39:40;97874.31;;;21.78;58.06
50057;BME280;36875;49.468;11.200;2023-09-19T09:42:07;97870.78;;;21.77;57.92
50057;BME280;36875;49.468;11.200;2023-09-19T09:44:35;97878.97;;;21.77;57.72
50057;BME280;36875;49.468;11.200;2023-09-19T09:47:00;97875.94;;;21.79;57.61
50057;BME280;36875;49.468;11.200;2023-09-19T09:49:49;97862.56;;;21.77;57.85
50057;BME280;36875;49.468;11.200;2023-09-19T09:52:19;97872.41;;;21.78;57.75
50057;BME280;36875;49.468;11.200;2023-09-19T09:54:58;97868.19;;;21.81;57.94
50057;BME280;36875;49.468;11.200;2023-09-19T09:57:25;97875.28;;;21.82;57.65
50057;BME280;36875;49.468;11.200;2023-09-19T09:59:52;97876.56;;;21.84;57.43
50057;BME280;36875;49.468;11.200;2023-09-19T10:02:26;97877.34;;;21.85;57.63
50057;BME280;36875;49.468;11.200;2023-09-19T10:04:54;97879.31;;;21.84;57.63
50057;BME280;36875;49.468;11.200;2023-09-19T10:07:39;97883.16;;;21.83;57.67
50057;BME280;36875;49.468;11.200;2023-09-19T10:10:08;97877.69;;;21.83;57.46
50057;BME280;36875;49.468;11.200;2023-09-19T10:12:54;97878.50;;;21.84;57.47
50057;BME280;36875;49.468;11.200;2023-09-19T10:15:23;97880.41;;;21.83;57.53
50057;BME280;36875;49.468;11.200;2023-09-19T10:17:52;97875.78;;;21.84;57.50
50057;BME280;36875;49.468;11.200;2023-09-19T10:20:22;97877.69;;;21.83;57.33
50057;BME280;36875;49.468;11.200;2023-09-19T10:23:09;97877.69;;;21.83;57.17
50057;BME280;36875;49.468;11.200;2023-09-19T10:25:40;97870.44;;;21.87;57.28
50057;BME280;36875;49.468;11.200;2023-09-19T10:28:09;97874.13;;;21.91;57.25
50057;BME280;36875;49.468;11.200;2023-09-19T10:30:41;97870.09;;;21.89;57.36
50057;BME280;36875;49.468;11.200;2023-09-19T10:33:09;97871.72;;;21.90;56.84
50057;BME280;36875;49.468;11.200;2023-09-19T10:35:38;97868.66;;;21.91;56.89
50057;BME280;36875;49.468;11.200;2023-09-19T10:38:06;97874.94;;;21.92;56.82
50057;BME280;36875;49.468;11.200;2023-09-19T10:40:32;97871.88;;;21.93;56.97
50057;BME280;36875;49.468;11.200;2023-09-19T10:43:01;97866.09;;;21.95;56.82
50057;BME280;36875;49.468;11.200;2023-09-19T10:45:30;97869.94;;;21.94;56.59
50057;BME280;36875;49.468;11.200;2023-09-19T10:47:56;97869.47;;;21.92;56.60
50057;BME280;36875;49.468;11.200;2023-09-19T10:50:23;97871.41;;;21.91;57.00
50057;BME280;36875;49.468;11.200;2023-09-19T10:52:50;97876.88;;;21.91;56.94
50057;BME280;36875;49.468;11.200;2023-09-19T10:55:24;97865.44;;;21.89;56.97
50057;BME280;36875;49.468;11.200;2023-09-19T10:57:50;97872.84;;;21.89;56.80
50057;BME280;36875;49.468;11.200;2023-09-19T11:00:17;97873.34;;;21.91;56.98
50057;BME280;36875;49.468;11.200;2023-09-19T11:03:18;97874.28;;;21.95;56.84
50057;BME280;36875;49.468;11.200;2023-09-19T11:06:04;97861.25;;;21.92;56.73
50057;BME280;36875;49.468;11.200;2023-09-19T11:08:30;97858.81;;;21.90;56.63
50057;BME280;36875;49.468;11.200;2023-09-19T11:10:57;97853.34;;;21.90;57.00
50057;BME280;36875;49.468;11.200;2023-09-19T11:13:24;97860.91;;;21.93;57.06
50057;BME280;36875;49.468;11.200;2023-09-19T11:16:06;97857.19;;;21.98;56.75
50057;BME280;36875;49.468;11.200;2023-09-19T11:18:52;97856.53;;;22.01;56.73
50057;BME280;36875;49.468;11.200;2023-09-19T11:21:52;97844.28;;;22.07;56.82
50057;BME280;36875;49.468;11.200;2023-09-19T11:24:32;97843.63;;;22.10;56.71
50057;BME280;36875;49.468;11.200;2023-09-19T11:27:12;97855.91;;;22.04;56.64
50057;BME280;36875;49.468;11.200;2023-09-19T11:29:39;97842.03;;;22.01;56.52
50057;BME280;36875;49.468;11.200;2023-09-19T11:32:05;97851.38;;;22.00;56.77
50057;BME280;36875;49.468;11.200;2023-09-19T11:34:42;97847.53;;;22.01;56.98
50057;BME280;36875;49.468;11.200;2023-09-19T11:42:53;97834.13;;;22.08;56.30
50057;BME280;36875;49.468;11.200;2023-09-19T11:48:26;97846.84;;;22.12;55.93
50057;BME280;36875;49.468;11.200;2023-09-19T11:53:21;97841.69;;;22.11;55.97
50057;BME280;36875;49.468;11.200;2023-09-19T11:55:48;97856.03;;;22.17;56.21
50057;BME280;36875;49.468;11.200;2023-09-19T11:58:15;97852.16;;;22.18;55.89
50057;BME280;36875;49.468;11.200;2023-09-19T12:00:43;97856.22;;;22.11;56.24
50057;BME280;36875;49.468;11.200;2023-09-19T12:03:11;97858.47;;;22.09;56.16
50057;BME280;36875;49.468;11.200;2023-09-19T12:05:36;97853.94;;;22.13;56.28
50057;BME280;36875;49.468;11.200;2023-09-19T12:08:04;97854.59;;;22.10;56.22
50057;BME280;36875;49.468;11.200;2023-09-19T12:10:32;97848.16;;;22.06;56.06
50057;BME280;36875;49.468;11.200;2023-09-19T12:12:58;97855.09;;;22.04;56.40
50057;BME280;36875;49.468;11.200;2023-09-19T12:15:25;97840.91;;;22.02;56.25
50057;BME280;36875;49.468;11.200;2023-09-19T12:17:59;97842.53;;;22.03;55.95
50057;BME280;36875;49.468;11.200;2023-09-19T12:20:25;97846.53;;;22.05;56.27
50057;BME280;36875;49.468;11.200;2023-09-19T12:22:51;97845.25;;;22.11;55.98
50057;BME280;36875;49.468;11.200;2023-09-19T12:25:20;97843.94;;;22.09;55.61
50057;BME280;36875;49.468;11.200;2023-09-19T12:27:47;97841.06;;;22.05;55.73
50057;BME280;36875;49.468;11.200;2023-09-19T12:30:15;97852.38;;;22.04;56.09
50057;BME280;36875;49.468;11.200;2023-09-19T12:32:43;97835.41;;;22.02;56.15
50057;BME280;36875;49.468;11.200;2023-09-19T12:35:10;97841.38;;;22.12;55.63
50057;BME280;36875;49.468;11.200;2023-09-19T12:37:44;97839.78;;;22.11;55.69
50057;BME280;36875;49.468;11.200;2023-09-19T12:40:13;97845.91;;;22.08;55.62
50057;BME280;36875;49.468;11.200;2023-09-19T12:42:49;97847.38;;;22.06;55.61
50057;BME280;36875;49.468;11.200;2023-09-19T12:45:16;97847.38;;;22.06;55.92
50057;BME280;36875;49.468;11.200;2023-09-19T12:51:03;97841.06;;;22.05;55.52
50057;BME280;36875;49.468;11.200;2023-09-19T12:53:32;97830.41;;;22.12;55.16
50057;BME280;36875;49.468;11.200;2023-09-19T12:55:59;97833.13;;;22.12;54.34
50057;BME280;36875;49.468;11.200;2023-09-19T12:58:26;97834.75;;;22.13;53.86
50057;BME280;36875;49.468;11.200;2023-09-19T13:00:52;97828.13;;;22.14;53.91
50057;BME280;36875;49.468;11.200;2023-09-19T13:03:24;97833.63;;;22.14;53.69
50057;BME280;36875;49.468;11.200;2023-09-19T13:05:52;97838.94;;;22.11;54.10
50057;BME280;36875;49.468;11.200;2023-09-19T13:08:21;97827.97;;;22.11;54.12
50057;BME280;36875;49.468;11.200;2023-09-19T13:11:06;97834.75;;;22.13;54.06